Pagrindinis puslapis
METAR-TAF:

METAR-TAF

Oro uostai :

Kiruna, Švedija

platuma: 67-49N, ilguma: 020-20E, Aukštis: 452 m

Dabartinis oras

Ataskaita buvo paskelbta 34 minutes, ne 11:20 UTC
Vėjas 6 kt iš Šiaurės/Šiaurės Vakarų, svyruoja nuo Vakarų/Šiaurės Vakarų ir Šiaurės
Temperatūra 14°C
Drėgmė 55%
Slėgis 1016 hPa
Matomumas 10 km arba daugiau
nėra debesų žemiau 1500 m ir nėra kamuolinių lietaus debesų

METAR: ESNQ 221120Z 33006KT 300V010 CAVOK 14/05 Q1016

Laikas: 13:54 (11:54 UTC)

Prognozė

Ataskaita buvo paskelbta 24 minutes, ne 11:30 UTC
Prognozė galioja nuo 22 metu 12 UTC su 22 metu 17 UTC
Vėjas 5 kt iš Šiaurės/Šiaurės Vakarų
Matomumas 10 km arba daugiau
Su prošvaistėmis ne aukštis 4500 ft

TAF: ESNQ 221130Z 2212/2217 33005KT 9999 BKN045

Orai ataskaitas ir orų prognozės (METAR, TAF).

turimą stotys yra geltonos ir raudonos taškus žemėlapyje.

Perkelti pele per norėdami pamatyti stoties vardą.

Tada spustelėkite, norėdami matyti oro stebėjimo ir prognozės.

Norėdami pakeisti žemėlapį: spustelėkite ant žalios mygtukų su juodo kryžiaus žemyn,; žalią mygtuką su brūkšneliu, jei norite nutolinti; arba žalių rodyklių gretimoms žemėlapius.


METAR-TAF: